createdAt,value
2019-02-04T00:00:38.849Z,73.90
2019-02-04T00:03:12.229Z,73.90
2019-02-04T00:05:40.571Z,74.00
2019-02-04T00:08:08.827Z,74.00
2019-02-04T00:10:37.095Z,74.00
2019-02-04T00:13:05.875Z,73.90
2019-02-04T00:15:34.208Z,73.90
2019-02-04T00:18:02.809Z,73.90
2019-02-04T00:20:31.183Z,74.20
2019-02-04T00:22:59.439Z,74.20
2019-02-04T00:25:27.691Z,74.20
2019-02-04T00:27:56.563Z,74.20
2019-02-04T00:30:26.258Z,74.30
2019-02-04T00:32:54.558Z,74.20
2019-02-04T00:35:22.817Z,74.90
2019-02-04T00:37:51.141Z,74.20
2019-02-04T00:40:24.036Z,74.20
2019-02-04T00:42:52.295Z,74.20
2019-02-04T00:45:20.643Z,74.20
2019-02-04T00:47:48.899Z,74.20
2019-02-04T00:50:21.586Z,74.20
2019-02-04T00:52:49.840Z,74.10
2019-02-04T00:55:18.189Z,73.90
2019-02-04T00:57:46.617Z,73.90
2019-02-04T01:00:20.530Z,74.10
2019-02-04T01:02:48.796Z,74.10
2019-02-04T01:05:19.558Z,74.10
2019-02-04T01:07:48.471Z,73.90
2019-02-04T01:10:40.999Z,73.80
2019-02-04T01:13:09.271Z,73.80
2019-02-04T01:15:37.546Z,73.70
2019-02-04T01:18:05.820Z,73.80
2019-02-04T01:20:34.510Z,73.70
2019-02-04T01:23:02.846Z,73.70
2019-02-04T01:25:31.183Z,73.70
2019-02-04T01:27:59.447Z,73.80
2019-02-04T01:30:27.694Z,73.90
2019-02-04T01:32:56.002Z,74.00
2019-02-04T01:35:24.690Z,74.00
2019-02-04T01:37:53.080Z,74.00
2019-02-04T01:40:26.031Z,73.90
2019-02-04T01:42:55.251Z,73.60
2019-02-04T01:45:24.486Z,73.60
2019-02-04T01:47:52.803Z,73.80
2019-02-04T01:50:22.187Z,74.00
2019-02-04T01:52:50.446Z,73.90
2019-02-04T01:55:18.765Z,74.10
2019-02-04T01:57:50.034Z,74.00
2019-02-04T02:00:27.018Z,74.00
2019-02-04T02:02:55.646Z,73.90
2019-02-04T02:05:23.987Z,73.90
2019-02-04T02:07:52.243Z,74.00
2019-02-04T02:10:22.638Z,74.00
2019-02-04T02:12:50.999Z,74.00
2019-02-04T02:15:19.319Z,74.00
2019-02-04T02:17:48.055Z,74.00
2019-02-04T02:20:18.980Z,74.10
2019-02-04T02:22:46.611Z,74.20
2019-02-04T02:25:14.867Z,74.00
2019-02-04T02:27:43.215Z,74.00
2019-02-04T02:30:17.190Z,74.00
2019-02-04T02:32:45.547Z,74.00
2019-02-04T02:35:13.918Z,74.00
2019-02-04T02:37:42.283Z,74.00
2019-02-04T02:40:21.946Z,74.00
2019-02-04T02:42:50.219Z,74.10
2019-02-04T02:45:18.860Z,74.30
2019-02-04T02:47:47.113Z,74.80
2019-02-04T02:50:15.754Z,74.20
2019-02-04T02:52:44.008Z,74.20
2019-02-04T02:55:17.095Z,74.30
2019-02-04T02:58:04.788Z,74.30
2019-02-04T03:00:33.058Z,74.30
2019-02-04T03:03:01.314Z,74.40
2019-02-04T03:05:29.584Z,74.40
2019-02-04T03:07:57.849Z,74.30
2019-02-04T03:10:28.223Z,74.40
2019-02-04T03:12:56.492Z,74.40
2019-02-04T03:15:24.828Z,74.50
2019-02-04T03:17:53.125Z,74.60
2019-02-04T03:20:21.476Z,74.60
2019-02-04T03:22:49.864Z,74.70
2019-02-04T03:25:18.189Z,74.60
2019-02-04T03:27:46.541Z,74.60
2019-02-04T03:30:26.264Z,74.70
2019-02-04T03:32:54.553Z,74.90
2019-02-04T03:35:22.871Z,74.90
2019-02-04T03:37:52.355Z,74.70
2019-02-04T03:40:26.912Z,74.70
2019-02-04T03:42:55.250Z,74.70
2019-02-04T03:45:23.635Z,74.70
2019-02-04T03:48:03.695Z,74.70
2019-02-04T03:50:22.047Z,74.60
2019-02-04T03:52:50.872Z,74.60
2019-02-04T03:55:19.204Z,74.70
2019-02-04T03:57:47.476Z,74.80
2019-02-04T04:00:24.652Z,74.90
2019-02-04T04:03:12.440Z,75.20
2019-02-04T04:05:40.690Z,75.10
2019-02-04T04:08:09.029Z,75.20
2019-02-04T04:10:37.640Z,75.50
2019-02-04T04:13:05.902Z,75.60
2019-02-04T04:15:34.251Z,75.60
2019-02-04T04:18:02.795Z,76.00
2019-02-04T04:20:31.175Z,75.90
2019-02-04T04:22:59.452Z,75.80
2019-02-04T04:25:29.359Z,75.80
2019-02-04T04:27:57.626Z,75.80
2019-02-04T04:30:27.520Z,75.80
2019-02-04T04:33:15.898Z,75.90
2019-02-04T04:35:44.150Z,75.80
2019-02-04T04:38:12.458Z,75.70
2019-02-04T04:40:40.715Z,75.70
2019-02-04T04:43:08.982Z,75.10
2019-02-04T04:45:37.242Z,75.30
2019-02-04T04:48:05.512Z,75.30
2019-02-04T04:50:33.788Z,75.20
2019-02-04T04:53:21.514Z,75.20
2019-02-04T04:56:09.672Z,75.20
2019-02-04T04:58:40.589Z,75.10
2019-02-04T05:01:07.920Z,75.00
2019-02-04T05:03:55.690Z,75.00
2019-02-04T05:06:23.946Z,75.10
2019-02-04T05:08:52.229Z,74.90
2019-02-04T05:11:20.524Z,75.00
2019-02-04T05:13:48.795Z,75.00
2019-02-04T05:16:17.121Z,74.90
2019-02-04T05:18:45.894Z,75.00
2019-02-04T05:21:14.243Z,75.00
2019-02-04T05:23:42.581Z,74.80
2019-02-04T05:26:10.846Z,75.00
2019-02-04T05:28:39.103Z,74.70
2019-02-04T05:31:07.372Z,74.80
2019-02-04T05:33:36.163Z,74.80
2019-02-04T05:36:04.475Z,74.70
2019-02-04T05:38:32.815Z,74.70
2019-02-04T05:41:01.139Z,74.50
2019-02-04T05:43:29.775Z,74.50
2019-02-04T05:45:58.036Z,74.50
2019-02-04T05:48:49.527Z,74.50
2019-02-04T05:51:15.723Z,74.30
2019-02-04T05:53:44.097Z,74.50
2019-02-04T05:56:12.477Z,75.10
2019-02-04T05:58:40.767Z,74.50
2019-02-04T06:01:09.415Z,74.40
2019-02-04T06:03:37.711Z,74.50
2019-02-04T06:06:05.965Z,74.50
2019-02-04T06:08:34.219Z,74.50
2019-02-04T06:11:02.477Z,74.40
2019-02-04T06:13:30.733Z,74.00
2019-02-04T06:15:59.392Z,74.30
2019-02-04T06:18:27.654Z,74.10
2019-02-04T06:20:55.919Z,74.00
2019-02-04T06:23:24.214Z,73.90
2019-02-04T06:25:52.539Z,74.00
2019-02-04T06:28:20.867Z,73.90
2019-02-04T06:30:49.152Z,73.60
2019-02-04T06:33:17.487Z,73.50
2019-02-04T06:35:45.823Z,73.60
2019-02-04T06:38:14.103Z,73.40
2019-02-04T06:40:42.352Z,73.40
2019-02-04T06:43:10.690Z,73.40
2019-02-04T06:45:38.972Z,73.20
2019-02-04T06:48:07.519Z,73.40
2019-02-04T06:50:35.839Z,73.20
2019-02-04T06:53:04.112Z,73.10
2019-02-04T06:55:33.580Z,73.10
2019-02-04T06:58:01.842Z,73.00
2019-02-04T07:00:30.099Z,73.10
2019-02-04T07:03:18.271Z,72.80
2019-02-04T07:05:46.599Z,73.00
2019-02-04T07:08:14.892Z,72.90
2019-02-04T07:10:43.155Z,72.80
2019-02-04T07:13:11.478Z,72.60
2019-02-04T07:15:40.055Z,72.60
2019-02-04T07:18:08.324Z,72.40
2019-02-04T07:20:36.668Z,72.20
2019-02-04T07:23:24.378Z,72.10
2019-02-04T07:25:52.700Z,72.20
2019-02-04T07:28:21.060Z,72.10
2019-02-04T07:30:49.394Z,72.10
2019-02-04T07:33:17.662Z,72.10
2019-02-04T07:35:46.267Z,72.00
2019-02-04T07:38:14.530Z,71.90
2019-02-04T07:40:42.900Z,72.00
2019-02-04T07:43:11.530Z,72.00
2019-02-04T07:45:39.793Z,71.80
2019-02-04T07:48:08.102Z,72.00
2019-02-04T07:50:36.733Z,71.60
2019-02-04T07:53:05.079Z,71.80
2019-02-04T07:55:33.432Z,71.80
2019-02-04T07:58:01.794Z,71.90
2019-02-04T08:00:32.059Z,71.70
2019-02-04T08:03:00.343Z,71.90
2019-02-04T08:05:28.672Z,71.80
2019-02-04T08:07:56.978Z,72.10
2019-02-04T08:10:25.313Z,72.10
2019-02-04T08:13:01.134Z,72.10
2019-02-04T08:15:26.075Z,72.30
2019-02-04T08:17:54.311Z,72.50
2019-02-04T08:20:22.896Z,71.00
2019-02-04T08:22:51.242Z,72.30
2019-02-04T08:25:19.520Z,72.40
2019-02-04T08:27:47.780Z,72.70
2019-02-04T08:30:21.529Z,72.20
2019-02-04T08:32:49.786Z,72.50
2019-02-04T08:35:18.068Z,72.30
2019-02-04T08:37:46.326Z,71.90
2019-02-04T08:40:16.603Z,71.90
2019-02-04T08:42:44.952Z,72.10
2019-02-04T08:45:34.948Z,72.30
2019-02-04T08:48:03.282Z,72.30
2019-02-04T08:50:31.664Z,72.30
2019-02-04T08:52:59.999Z,71.80
2019-02-04T08:55:28.347Z,71.80
2019-02-04T08:57:56.790Z,72.50
2019-02-04T09:00:26.855Z,72.00
2019-02-04T09:02:55.343Z,72.20
2019-02-04T09:05:24.326Z,72.80
2019-02-04T09:07:52.659Z,73.00
2019-02-04T09:10:23.864Z,72.60
2019-02-04T09:12:52.538Z,72.10
2019-02-04T09:15:20.862Z,72.80
2019-02-04T09:17:49.127Z,71.00
2019-02-04T09:20:18.510Z,72.10
2019-02-04T09:22:47.217Z,72.50
2019-02-04T09:25:21.422Z,72.10
2019-02-04T09:27:50.363Z,71.10
2019-02-04T09:30:23.468Z,71.00
2019-02-04T09:32:51.807Z,70.70
2019-02-04T09:35:21.414Z,70.20
2019-02-04T09:37:49.759Z,69.70
2019-02-04T09:40:22.269Z,68.60
2019-02-04T09:42:51.015Z,68.10
2019-02-04T09:45:19.280Z,67.50
2019-02-04T09:47:47.630Z,67.10
2019-02-04T09:50:22.169Z,67.30
2019-02-04T09:52:50.733Z,66.90
2019-02-04T09:55:21.987Z,67.30
2019-02-04T09:57:50.323Z,67.50
2019-02-04T10:00:23.938Z,68.10
2019-02-04T10:02:52.218Z,68.10
2019-02-04T10:05:20.627Z,68.10
2019-02-04T10:07:48.940Z,67.50
2019-02-04T10:10:25.358Z,66.60
2019-02-04T10:12:53.694Z,65.50
2019-02-04T10:15:24.988Z,64.60
2019-02-04T10:17:53.358Z,64.10
2019-02-04T10:20:32.992Z,64.00
2019-02-04T10:22:51.669Z,63.50
2019-02-04T10:25:25.779Z,63.80
2019-02-04T10:27:54.083Z,63.20
2019-02-04T10:30:24.140Z,64.70
2019-02-04T10:32:52.695Z,64.40
2019-02-04T10:35:21.284Z,63.50
2019-02-04T10:37:52.890Z,64.00
2019-02-04T10:40:21.683Z,63.00
2019-02-04T10:42:50.103Z,62.60
2019-02-04T10:45:19.905Z,63.40
2019-02-04T10:47:49.477Z,63.90
2019-02-04T10:50:29.356Z,62.00
2019-02-04T10:52:57.693Z,62.00
2019-02-04T10:55:25.984Z,61.60
2019-02-04T10:57:54.334Z,62.80
2019-02-04T11:00:28.361Z,62.60
2019-02-04T11:02:56.692Z,62.30
2019-02-04T11:05:27.821Z,61.60
2019-02-04T11:07:56.151Z,61.90
2019-02-04T11:10:26.164Z,61.40
2019-02-04T11:12:54.532Z,61.70
2019-02-04T11:15:25.529Z,61.30
2019-02-04T11:17:53.112Z,62.50
2019-02-04T11:20:26.923Z,61.90
2019-02-04T11:22:55.285Z,62.00
2019-02-04T11:25:23.641Z,62.10
2019-02-04T11:27:52.008Z,61.80
2019-02-04T11:30:34.841Z,60.90
2019-02-04T11:33:03.202Z,62.00
2019-02-04T11:35:31.553Z,61.70
2019-02-04T11:37:59.909Z,62.10
2019-02-04T11:40:37.063Z,62.00
2019-02-04T11:43:05.345Z,61.50
2019-02-04T11:45:34.582Z,62.30
2019-02-04T11:48:04.218Z,61.90
2019-02-04T11:50:32.596Z,61.50
2019-02-04T11:53:00.924Z,61.80
2019-02-04T11:55:29.196Z,61.80
2019-02-04T11:57:57.455Z,61.50
2019-02-04T12:00:30.763Z,61.30
2019-02-04T12:03:00.671Z,61.80
2019-02-04T12:05:28.937Z,62.10
2019-02-04T12:07:57.303Z,62.10
2019-02-04T12:10:45.186Z,61.50
2019-02-04T12:13:13.463Z,61.20
2019-02-04T12:15:41.807Z,61.20
2019-02-04T12:18:10.076Z,61.40
2019-02-04T12:20:39.927Z,61.30
2019-02-04T12:23:08.468Z,60.70
2019-02-04T12:25:37.102Z,60.90
2019-02-04T12:28:05.423Z,61.00
2019-02-04T12:30:36.572Z,61.00
2019-02-04T12:33:07.288Z,61.50
2019-02-04T12:35:35.656Z,61.40
2019-02-04T12:38:03.999Z,61.30
2019-02-04T12:40:33.077Z,61.50
2019-02-04T12:43:01.443Z,61.80
2019-02-04T12:45:32.956Z,61.70
2019-02-04T12:48:01.317Z,61.20
2019-02-04T12:50:29.571Z,60.00
2019-02-04T12:52:57.826Z,61.30
2019-02-04T12:55:31.182Z,59.60
2019-02-04T12:57:59.449Z,60.00
2019-02-04T13:00:29.606Z,59.80
2019-02-04T13:02:57.892Z,59.40
2019-02-04T13:05:38.008Z,59.40
2019-02-04T13:08:06.748Z,58.80
2019-02-04T13:10:35.091Z,59.60
2019-02-04T13:13:03.726Z,59.20
2019-02-04T13:15:32.030Z,59.30
2019-02-04T13:18:00.378Z,59.30
2019-02-04T13:20:29.823Z,58.60
2019-02-04T13:22:58.483Z,58.00
2019-02-04T13:25:30.147Z,58.60
2019-02-04T13:27:58.548Z,58.20
2019-02-04T13:30:28.439Z,57.50
2019-02-04T13:32:56.750Z,58.10
2019-02-04T13:35:25.002Z,58.80
2019-02-04T13:37:53.843Z,58.00
2019-02-04T13:40:46.399Z,57.80
2019-02-04T13:43:14.652Z,57.90
2019-02-04T13:45:42.911Z,58.40
2019-02-04T13:48:11.565Z,58.40
2019-02-04T13:50:39.939Z,58.50
2019-02-04T13:53:08.287Z,58.00
2019-02-04T13:55:38.603Z,57.00
2019-02-04T13:58:07.328Z,57.50
2019-02-04T14:00:35.774Z,56.90
2019-02-04T14:03:24.053Z,57.40
2019-02-04T14:05:52.403Z,57.50
2019-02-04T14:08:20.699Z,57.20
2019-02-04T14:10:48.971Z,57.20
2019-02-04T14:13:17.230Z,56.90
2019-02-04T14:15:45.566Z,56.40
2019-02-04T14:18:13.830Z,57.10
2019-02-04T14:20:42.270Z,57.10
2019-02-04T14:23:10.653Z,57.60
2019-02-04T14:25:38.978Z,57.10
2019-02-04T14:28:07.346Z,57.00
2019-02-04T14:30:38.984Z,57.30
2019-02-04T14:33:07.493Z,57.20
2019-02-04T14:35:35.756Z,57.40
2019-02-04T14:38:04.694Z,56.80
2019-02-04T14:40:32.948Z,57.60
2019-02-04T14:43:35.312Z,57.10
2019-02-04T14:46:09.521Z,57.40
2019-02-04T14:48:49.430Z,57.00
2019-02-04T14:51:38.758Z,56.60
2019-02-04T14:54:47.359Z,56.80
2019-02-04T14:57:18.891Z,57.10
2019-02-04T14:59:50.303Z,56.80
2019-02-04T15:02:54.726Z,56.40
2019-02-04T15:05:43.863Z,56.40
2019-02-04T15:08:42.357Z,56.50
2019-02-04T15:11:34.391Z,56.60
2019-02-04T15:14:32.717Z,56.40
2019-02-04T15:17:04.451Z,56.70
2019-02-04T15:19:54.228Z,56.40
2019-02-04T15:22:33.063Z,56.40
2019-02-04T15:25:25.384Z,56.00
2019-02-04T15:28:02.499Z,56.40
2019-02-04T15:30:52.247Z,56.50
2019-02-04T15:33:24.362Z,56.50
2019-02-04T15:36:20.015Z,56.90
2019-02-04T15:38:57.419Z,56.40
2019-02-04T15:41:45.544Z,56.90
2019-02-04T15:44:26.026Z,57.40
2019-02-04T15:46:57.618Z,56.60
2019-02-04T15:49:57.814Z,57.10
2019-02-04T15:52:26.086Z,57.30
2019-02-04T15:54:54.359Z,57.20
2019-02-04T15:57:22.808Z,56.70
2019-02-04T15:59:51.082Z,57.10
2019-02-04T16:02:19.338Z,56.90
2019-02-04T16:04:47.607Z,57.20
2019-02-04T16:07:15.887Z,56.40
2019-02-04T16:10:05.018Z,56.40
2019-02-04T16:12:33.274Z,56.20
2019-02-04T16:15:01.548Z,56.80
2019-02-04T16:17:29.798Z,56.20
2019-02-04T16:19:58.231Z,56.60
2019-02-04T16:22:26.738Z,56.60
2019-02-04T16:24:55.462Z,56.20
2019-02-04T16:27:23.733Z,56.10
2019-02-04T16:29:52.014Z,55.90
2019-02-04T16:32:20.365Z,56.00
2019-02-04T16:34:48.618Z,55.30
2019-02-04T16:37:16.878Z,54.90
2019-02-04T16:39:45.530Z,55.30
2019-02-04T16:42:13.804Z,55.60
2019-02-04T16:44:42.128Z,55.40
2019-02-04T16:47:10.418Z,55.40
2019-02-04T16:49:38.763Z,55.30
2019-02-04T16:52:07.083Z,55.30
2019-02-04T16:54:35.343Z,55.10
2019-02-04T16:57:04.104Z,55.30
2019-02-04T16:59:32.444Z,54.90
2019-02-04T17:02:00.703Z,55.10
2019-02-04T17:04:28.969Z,55.40
2019-02-04T17:06:57.323Z,55.20
2019-02-04T17:09:25.663Z,54.90
2019-02-04T17:11:53.988Z,54.70
2019-02-04T17:14:22.255Z,55.30
2019-02-04T17:16:50.531Z,55.60
2019-02-04T17:19:18.870Z,55.30
2019-02-04T17:21:47.128Z,55.60
2019-02-04T17:24:15.467Z,55.10
2019-02-04T17:26:43.739Z,55.40
2019-02-04T17:29:12.272Z,55.70
2019-02-04T17:31:40.606Z,55.40
2019-02-04T17:34:08.862Z,55.40
2019-02-04T17:36:37.126Z,55.30
2019-02-04T17:39:06.709Z,55.00
2019-02-04T17:41:35.050Z,54.50
2019-02-04T17:44:03.581Z,54.60
2019-02-04T17:46:31.919Z,53.80
2019-02-04T17:49:00.190Z,54.60
2019-02-04T17:51:28.464Z,53.70
2019-02-04T17:53:56.786Z,54.10
2019-02-04T17:56:25.039Z,53.50
2019-02-04T17:58:53.347Z,54.40
2019-02-04T18:01:21.943Z,54.50
2019-02-04T18:03:50.233Z,54.50
2019-02-04T18:06:18.598Z,54.50
2019-02-04T18:08:46.890Z,55.00
2019-02-04T18:11:15.167Z,55.20
2019-02-04T18:13:43.427Z,55.10
2019-02-04T18:16:12.054Z,55.50
2019-02-04T18:18:40.325Z,54.80
2019-02-04T18:21:08.574Z,54.90
2019-02-04T18:23:45.491Z,55.00
2019-02-04T18:26:07.264Z,55.00
2019-02-04T18:28:36.102Z,54.90
2019-02-04T18:31:04.395Z,54.70
2019-02-04T18:33:33.106Z,54.90
2019-02-04T18:36:01.376Z,54.60
2019-02-04T18:38:29.827Z,54.90
2019-02-04T18:40:58.375Z,54.90
2019-02-04T18:43:26.716Z,54.90
2019-02-04T18:46:07.687Z,54.00
2019-02-04T18:48:50.158Z,54.40
2019-02-04T18:51:18.476Z,54.60
2019-02-04T18:53:57.201Z,54.50
2019-02-04T18:56:16.746Z,55.00
2019-02-04T18:58:45.074Z,54.30
2019-02-04T19:01:13.335Z,54.10
2019-02-04T19:03:41.637Z,54.70
2019-02-04T19:06:09.956Z,55.10
2019-02-04T19:08:38.216Z,55.10
2019-02-04T19:11:07.063Z,55.40
2019-02-04T19:13:36.389Z,55.10
2019-02-04T19:16:04.833Z,55.20
2019-02-04T19:18:33.084Z,55.80
2019-02-04T19:21:01.347Z,55.70
2019-02-04T19:23:29.598Z,55.50
2019-02-04T19:25:57.871Z,55.50
2019-02-04T19:28:26.179Z,55.90
2019-02-04T19:30:57.926Z,55.90
2019-02-04T19:33:26.248Z,56.10
2019-02-04T19:35:54.519Z,55.80
2019-02-04T19:38:22.776Z,56.30
2019-02-04T19:40:51.043Z,56.40
2019-02-04T19:43:19.326Z,56.10
2019-02-04T19:45:47.658Z,56.40
2019-02-04T19:48:16.007Z,56.50
2019-02-04T19:50:44.275Z,56.40
2019-02-04T19:53:12.529Z,56.90
2019-02-04T19:55:40.798Z,56.50
2019-02-04T19:58:09.610Z,56.60
2019-02-04T20:00:37.868Z,56.50
2019-02-04T20:03:06.405Z,56.70
2019-02-04T20:05:34.731Z,56.70
2019-02-04T20:08:02.995Z,56.50
2019-02-04T20:10:34.603Z,56.50
2019-02-04T20:13:02.847Z,56.40
2019-02-04T20:15:32.054Z,56.60
2019-02-04T20:18:00.384Z,56.80
2019-02-04T20:20:28.678Z,56.70
2019-02-04T20:23:16.455Z,56.70
2019-02-04T20:25:45.410Z,56.80
2019-02-04T20:28:13.799Z,57.00
2019-02-04T20:30:46.427Z,57.30
2019-02-04T20:33:15.160Z,57.40
2019-02-04T20:35:43.502Z,57.50
2019-02-04T20:38:11.823Z,57.50
2019-02-04T20:40:40.173Z,58.10
2019-02-04T20:43:09.274Z,57.60
2019-02-04T20:45:37.544Z,57.90
2019-02-04T20:48:11.055Z,57.70
2019-02-04T20:50:44.897Z,57.80
2019-02-04T20:53:13.235Z,57.90
2019-02-04T20:55:41.868Z,57.80
2019-02-04T20:58:10.155Z,58.00
2019-02-04T21:00:38.471Z,57.90
2019-02-04T21:03:06.923Z,58.10
2019-02-04T21:05:35.247Z,58.20
2019-02-04T21:08:04.086Z,58.10
2019-02-04T21:10:32.595Z,58.30
2019-02-04T21:13:00.866Z,58.10
2019-02-04T21:15:29.122Z,58.10
2019-02-04T21:17:57.379Z,58.20
2019-02-04T21:20:27.311Z,58.30
2019-02-04T21:22:55.915Z,58.30
2019-02-04T21:25:24.631Z,58.40
2019-02-04T21:27:53.167Z,58.50
2019-02-04T21:30:38.383Z,58.30
2019-02-04T21:33:06.851Z,58.50
2019-02-04T21:35:35.119Z,58.60
2019-02-04T21:38:03.459Z,58.70
2019-02-04T21:40:32.073Z,58.90
2019-02-04T21:43:00.366Z,59.10
2019-02-04T21:45:28.645Z,59.10
2019-02-04T21:47:56.983Z,59.20
2019-02-04T21:50:27.734Z,59.30
2019-02-04T21:52:56.006Z,59.60
2019-02-04T21:55:24.552Z,59.60
2019-02-04T21:57:52.991Z,59.80
2019-02-04T22:00:26.810Z,60.00
2019-02-04T22:02:55.151Z,60.00
2019-02-04T22:05:50.152Z,60.00
2019-02-04T22:08:18.499Z,59.90
2019-02-04T22:10:46.828Z,60.10
2019-02-04T22:13:15.099Z,60.10
2019-02-04T22:15:43.526Z,60.10
2019-02-04T22:18:12.178Z,60.20
2019-02-04T22:20:41.013Z,60.30
2019-02-04T22:23:09.352Z,60.20
2019-02-04T22:25:38.101Z,60.50
2019-02-04T22:28:06.441Z,60.50
2019-02-04T22:30:34.776Z,60.70
2019-02-04T22:33:03.120Z,60.90
2019-02-04T22:35:31.377Z,61.10
2019-02-04T22:37:59.926Z,61.40
2019-02-04T22:40:29.989Z,61.30
2019-02-04T22:42:58.665Z,61.50
2019-02-04T22:45:46.370Z,61.70
2019-02-04T22:48:14.706Z,62.00
2019-02-04T22:50:43.355Z,62.10
2019-02-04T22:53:11.611Z,62.30
2019-02-04T22:55:39.861Z,62.60
2019-02-04T22:58:08.147Z,62.80
2019-02-04T23:00:57.776Z,63.10
2019-02-04T23:03:28.044Z,63.10
2019-02-04T23:05:56.301Z,63.30
2019-02-04T23:08:24.647Z,63.70
2019-02-04T23:10:52.933Z,63.70
2019-02-04T23:13:21.599Z,64.00
2019-02-04T23:15:49.933Z,64.30
2019-02-04T23:18:18.277Z,64.40
2019-02-04T23:20:46.611Z,64.60
2019-02-04T23:23:14.922Z,64.90
2019-02-04T23:25:43.940Z,65.20
2019-02-04T23:28:12.319Z,65.30
2019-02-04T23:30:40.663Z,65.40
2019-02-04T23:33:08.923Z,65.60
2019-02-04T23:35:37.192Z,65.70
2019-02-04T23:38:05.906Z,65.90
2019-02-04T23:40:34.179Z,65.80
2019-02-04T23:43:02.434Z,66.00
2019-02-04T23:45:30.683Z,66.20
2019-02-04T23:47:59.332Z,66.50
2019-02-04T23:50:27.606Z,66.50
2019-02-04T23:52:55.895Z,66.60
2019-02-04T23:55:24.146Z,66.70
2019-02-04T23:57:52.426Z,66.60
